Estación Meteorológica Peña el Pijo (Robertgarden) [ 01/30/23 13:40:10 CET ]

Fecha Hora Presion(HPa) Temp (°C) Humedad % Rocio (°C) Viento ( m/s) Direccion Lluvia 1Hora(mm) Lluvia 24H(mm) LLuvia Total(mm)
2012-Dec-24 01:01:11 1013.700 3.0 75 -1.0         178.19
2012-Dec-24 02:01:43 1013.000 2.8 77 -0.8         178.19
2012-Dec-24 03:01:41 1012.800 2.3 78 -1.2         178.19
2012-Dec-24 04:01:47 1012.400 1.8 79 -1.5         178.19
2012-Dec-24 05:05:16 1011.900 0.9 81 -2.0         178.19
2012-Dec-24 06:01:13 1011.600 0.3 82 -2.4         178.19
2012-Dec-24 07:01:13 1011.600 -0.4 82 -3.1         178.19
2012-Dec-24 08:01:15 1011.800 -0.4 82 -3.1         178.19
2012-Dec-24 09:01:12 1011.700 -0.5 83 -3.0         178.19
2012-Dec-24 10:01:18 1012.100 5.3 81 2.3         178.19
2012-Dec-24 11:01:14 1012.300 13.8 51 3.9         178.19
2012-Dec-24 12:01:17 1011.500 19.9 22 -2.6         178.19
2012-Dec-24 13:01:17 1010.600 22.2 15 -6.3         178.19
2012-Dec-24 14:01:16 1009.900 22.1 12 -9.1         178.19
2012-Dec-24 15:01:16 1009.600 21.1 12 -9.9         178.19
2012-Dec-24 16:01:13 1009.600 20.1 13 -9.8         178.19
2012-Dec-24 17:01:13 1009.500 16.7 21 -5.8         178.19
2012-Dec-24 18:01:12 1009.600 12.9 29 -4.8         178.19
2012-Dec-24 19:01:13 1009.600 8.1 40 -4.7         178.19
2012-Dec-24 20:01:14 1009.600 5.3 49 -4.6         178.19
2012-Dec-24 21:01:13 1009.500 4.2 56 -3.9         178.19
2012-Dec-24 22:01:11 1009.100 3.3 62 -3.3         178.19
2012-Dec-24 23:01:12 1009.000 2.9 65 -3.0         178.19

Temperatura Máxima:22°    Temperatura Mínima:
Presión Máxima:1013.700 Hpa    Presión Mínima:1009.000 Hpa


Volver